Time;durP1;ratioP1;P1;durP2;ratioP2;P2;SDS_P1;SDS_P2;PMS_P1;PMS_P2;Temp;Humidity;BMP_temperature;BMP_pressure;BME280_temperature;BME280_humidity;BME280_pressure;Samples;Min_cycle;Max_cycle;Signal;HPM_P1;HPM_P2
2020/12/17 00:01:41;;;;;;;11.00;7.43;;;;;;;;;;5156434;27;20207;-57
2020/12/17 00:04:08;;;;;;;12.05;7.75;;;;;;;;;;5155710;27;20198;-54
2020/12/17 00:06:36;;;;;;;11.03;7.70;;;;;;;;;;5155468;27;20222;-50
2020/12/17 00:09:05;;;;;;;8.33;6.20;;;;;;;;;;5152390;27;20494;-55
2020/12/17 00:11:33;;;;;;;9.27;7.25;;;;;;;;;;5156929;27;20503;-57
2020/12/17 00:14:06;;;;;;;10.68;6.97;;;;;;;;;;5156669;27;20175;-53
2020/12/17 00:16:38;;;;;;;10.77;6.70;;;;;;;;;;5156333;27;20205;-58
2020/12/17 00:21:49;;;;;;;9.60;6.13;;;;;;;;;;5155307;27;20456;-57
2020/12/17 00:24:16;;;;;;;8.10;6.70;;;;;;;;;;5155026;27;20499;-48
2020/12/17 00:27:00;;;;;;;8.13;5.53;;;;;;;;;;5156423;27;20452;-53
2020/12/17 00:29:26;;;;;;;9.20;6.07;;;;;;;;;;5155125;27;20238;-54
2020/12/17 00:31:58;;;;;;;8.90;6.20;;;;;;;;;;5154866;27;20190;-50
2020/12/17 00:34:30;;;;;;;6.82;5.40;;;;;;;;;;5156033;27;20644;-55
2020/12/17 00:37:26;;;;;;;10.35;6.07;;;;;;;;;;5156647;27;20194;-58
2020/12/17 00:40:05;;;;;;;11.30;6.78;;;;;;;;;;5152689;27;20298;-58
2020/12/17 00:42:32;;;;;;;11.30;5.83;;;;;;;;;;5155899;27;20233;-53
2020/12/17 00:45:05;;;;;;;7.90;4.90;;;;;;;;;;5156672;27;20439;-55
2020/12/17 00:50:18;;;;;;;9.77;5.87;;;;;;;;;;5149231;27;20493;-55
2020/12/17 00:52:57;;;;;;;6.80;5.40;;;;;;;;;;5155137;27;20448;-56
2020/12/17 00:55:35;;;;;;;6.40;4.93;;;;;;;;;;5154920;27;20447;-57
2020/12/17 00:58:03;;;;;;;6.60;4.80;;;;;;;;;;5155518;27;20455;-48
2020/12/17 01:00:31;;;;;;;7.10;5.67;;;;;;;;;;5155598;27;20494;-54
2020/12/17 01:03:10;;;;;;;11.10;5.60;;;;;;;;;;5153999;27;20583;-48
2020/12/17 01:05:37;;;;;;;6.20;4.30;;;;;;;;;;5155794;27;20459;-54
2020/12/17 01:08:04;;;;;;;7.63;5.10;;;;;;;;;;5155202;27;20480;-49
2020/12/17 01:10:33;;;;;;;6.30;3.90;;;;;;;;;;5155807;27;20496;-54
2020/12/17 01:13:01;;;;;;;6.93;4.77;;;;;;;;;;5154799;27;20455;-55
2020/12/17 01:15:28;;;;;;;10.98;4.07;;;;;;;;;;5154169;27;20448;-49
2020/12/17 01:17:57;;;;;;;5.70;4.13;;;;;;;;;;5156506;27;20186;-54
2020/12/17 01:20:29;;;;;;;5.07;4.07;;;;;;;;;;5155100;27;20443;-59
2020/12/17 01:22:57;;;;;;;5.47;4.23;;;;;;;;;;5147157;27;20455;-53
2020/12/17 01:25:25;;;;;;;6.33;4.00;;;;;;;;;;5155647;27;20451;-51
2020/12/17 01:27:55;;;;;;;4.60;3.05;;;;;;;;;;5153395;27;20519;-51
2020/12/17 01:30:25;;;;;;;7.73;4.60;;;;;;;;;;5154544;27;20215;-51
2020/12/17 01:32:53;;;;;;;7.23;3.67;;;;;;;;;;5154548;27;20468;-55
2020/12/17 01:35:20;;;;;;;6.75;4.38;;;;;;;;;;5152140;27;20546;-51
2020/12/17 01:37:47;;;;;;;8.23;4.77;;;;;;;;;;5155039;27;20459;-52
2020/12/17 01:40:19;;;;;;;6.80;4.20;;;;;;;;;;5152962;27;20480;-52
2020/12/17 01:42:47;;;;;;;6.90;4.90;;;;;;;;;;5152830;27;20862;-50
2020/12/17 01:45:20;;;;;;;8.07;5.00;;;;;;;;;;5154218;27;20470;-56
2020/12/17 01:47:48;;;;;;;5.15;4.15;;;;;;;;;;5153861;27;20218;-49
2020/12/17 01:50:16;;;;;;;6.82;4.57;;;;;;;;;;5153192;27;20225;-57
2020/12/17 01:52:59;;;;;;;8.00;4.20;;;;;;;;;;5152583;27;20189;-55
2020/12/17 01:55:34;;;;;;;7.25;4.47;;;;;;;;;;5154193;27;20223;-49
2020/12/17 01:58:04;;;;;;;10.83;5.13;;;;;;;;;;5153222;27;20201;-54
2020/12/17 02:00:36;;;;;;;6.33;4.23;;;;;;;;;;5154415;27;20555;-56
2020/12/17 02:03:06;;;;;;;9.90;5.20;;;;;;;;;;5152236;27;20627;-55
2020/12/17 02:05:47;;;;;;;7.10;4.93;;;;;;;;;;5152363;27;20460;-51
2020/12/17 02:08:17;;;;;;;5.20;4.03;;;;;;;;;;5153440;27;20529;-52
2020/12/17 02:10:43;;;;;;;6.00;4.60;;;;;;;;;;5153176;27;20459;-50
2020/12/17 02:13:10;;;;;;;7.00;5.03;;;;;;;;;;5153670;28;20454;-54
2020/12/17 02:15:41;;;;;;;6.10;4.37;;;;;;;;;;5154367;28;20673;-53
2020/12/17 02:18:12;;;;;;;7.50;5.30;;;;;;;;;;5154477;27;20440;-55
2020/12/17 02:20:40;;;;;;;7.53;4.75;;;;;;;;;;5151610;28;20477;-53
2020/12/17 02:23:07;;;;;;;7.70;5.10;;;;;;;;;;5153778;28;20258;-53
2020/12/17 02:25:36;;;;;;;5.83;3.53;;;;;;;;;;5153378;28;20462;-51
2020/12/17 02:28:03;;;;;;;9.37;3.90;;;;;;;;;;5150663;28;20482;-55
2020/12/17 02:30:30;;;;;;;5.20;4.40;;;;;;;;;;5152555;28;20463;-51
2020/12/17 02:32:57;;;;;;;6.53;4.23;;;;;;;;;;5153230;28;20463;-56
2020/12/17 02:35:24;;;;;;;5.20;3.60;;;;;;;;;;5154478;28;20466;-54
2020/12/17 02:38:19;;;;;;;5.63;4.10;;;;;;;;;;5153128;28;20463;-54
2020/12/17 02:40:46;;;;;;;9.57;3.70;;;;;;;;;;5094689;28;20458;-49
2020/12/17 02:43:50;;;;;;;5.60;3.77;;;;;;;;;;5153193;28;20444;-57
2020/12/17 02:46:16;;;;;;;7.57;4.80;;;;;;;;;;5152295;28;20511;-55
2020/12/17 02:48:43;;;;;;;5.43;4.13;;;;;;;;;;5153012;28;20245;-52
2020/12/17 02:51:19;;;;;;;5.97;4.33;;;;;;;;;;5154148;28;20214;-58
2020/12/17 02:53:46;;;;;;;5.93;3.70;;;;;;;;;;5154075;28;20508;-48
2020/12/17 02:59:02;;;;;;;6.30;4.13;;;;;;;;;;5153710;28;20456;-59
2020/12/17 03:01:29;;;;;;;8.10;4.53;;;;;;;;;;5153572;28;20423;-51
2020/12/17 03:03:58;;;;;;;5.72;3.83;;;;;;;;;;5153419;27;20556;-53
2020/12/17 03:06:28;;;;;;;6.32;4.65;;;;;;;;;;5154880;28;20200;-51
2020/12/17 03:08:55;;;;;;;7.37;4.50;;;;;;;;;;5146764;28;20540;-61
2020/12/17 03:11:25;;;;;;;7.68;4.70;;;;;;;;;;5135509;28;20468;-55
2020/12/17 03:13:53;;;;;;;6.80;5.63;;;;;;;;;;5152230;27;20233;-56
2020/12/17 03:16:29;;;;;;;7.97;5.00;;;;;;;;;;5159475;27;20450;-54
2020/12/17 03:19:17;;;;;;;6.10;4.50;;;;;;;;;;5156667;27;20444;-55
2020/12/17 03:21:50;;;;;;;10.70;4.60;;;;;;;;;;5154758;27;20468;-49
2020/12/17 03:24:16;;;;;;;5.57;4.22;;;;;;;;;;5157083;27;20477;-51
2020/12/17 03:26:53;;;;;;;7.43;5.45;;;;;;;;;;5155099;27;20233;-53
2020/12/17 03:29:21;;;;;;;7.57;4.50;;;;;;;;;;5155145;27;20209;-48
2020/12/17 03:31:50;;;;;;;5.20;3.72;;;;;;;;;;5152686;27;20510;-57
2020/12/17 03:34:17;;;;;;;6.80;4.87;;;;;;;;;;5156220;27;20231;-54
2020/12/17 03:36:52;;;;;;;7.83;5.40;;;;;;;;;;5156749;27;20469;-53
2020/12/17 03:39:25;;;;;;;9.00;4.87;;;;;;;;;;5156061;27;20451;-56
2020/12/17 03:41:53;;;;;;;7.20;4.25;;;;;;;;;;5156019;27;20449;-50
2020/12/17 03:44:34;;;;;;;6.90;4.27;;;;;;;;;;5156285;27;20205;-55
2020/12/17 03:47:01;;;;;;;7.77;5.37;;;;;;;;;;5149975;27;20489;-57
2020/12/17 03:49:39;;;;;;;;;;;;;;;;;;;;;
2020/12/17 03:52:14;;;;;;;9.63;4.20;;;;;;;;;;5134372;28;20236;-55
2020/12/17 03:54:44;;;;;;;6.70;4.47;;;;;;;;;;5134505;28;20445;-58
2020/12/17 03:57:20;;;;;;;9.73;4.53;;;;;;;;;;5147945;27;20580;-61
2020/12/17 03:59:54;;;;;;;8.50;4.87;;;;;;;;;;5134595;28;20458;-51
2020/12/17 04:02:23;;;;;;;6.33;4.87;;;;;;;;;;5134788;27;20471;-55
2020/12/17 04:05:03;;;;;;;7.40;4.30;;;;;;;;;;5155588;27;20527;-58
2020/12/17 04:07:30;;;;;;;8.60;4.23;;;;;;;;;;5149184;27;20468;-56
2020/12/17 04:10:00;;;;;;;7.17;4.50;;;;;;;;;;5135178;28;20478;-54
2020/12/17 04:12:32;;;;;;;5.57;4.30;;;;;;;;;;5154625;27;20463;-54
2020/12/17 04:15:18;;;;;;;7.90;4.77;;;;;;;;;;5155483;27;20484;-51
2020/12/17 04:20:40;;;;;;;6.33;4.80;;;;;;;;;;5139462;27;20516;-53
2020/12/17 04:25:40;;;;;;;7.63;5.03;;;;;;;;;;5152487;27;20577;-52
2020/12/17 04:28:09;;;;;;;6.97;4.30;;;;;;;;;;5155011;27;20507;-56
2020/12/17 04:30:38;;;;;;;11.23;4.77;;;;;;;;;;5154671;27;20456;-55
2020/12/17 04:33:17;;;;;;;7.22;5.10;;;;;;;;;;5151320;27;20519;-57
2020/12/17 04:36:00;;;;;;;5.18;4.10;;;;;;;;;;5148865;27;20285;-51
2020/12/17 04:38:28;;;;;;;7.87;4.53;;;;;;;;;;5154183;27;20196;-58
2020/12/17 04:40:57;;;;;;;5.40;3.83;;;;;;;;;;5151363;27;20495;-54
2020/12/17 04:43:39;;;;;;;7.73;4.83;;;;;;;;;;5153207;27;20447;-59
2020/12/17 04:46:10;;;;;;;7.17;4.60;;;;;;;;;;5142489;27;20452;-50
2020/12/17 04:48:37;;;;;;;5.13;3.60;;;;;;;;;;5153479;27;20481;-54
2020/12/17 04:51:07;;;;;;;5.50;3.80;;;;;;;;;;5141771;27;20440;-46
2020/12/17 04:53:41;;;;;;;6.70;4.17;;;;;;;;;;5133789;28;20458;-57
2020/12/17 04:56:08;;;;;;;6.40;4.40;;;;;;;;;;5133327;28;20496;-56
2020/12/17 04:58:44;;;;;;;5.65;4.25;;;;;;;;;;5143999;27;20440;-51
2020/12/17 05:01:15;;;;;;;8.80;4.40;;;;;;;;;;5153447;27;20181;-53
2020/12/17 05:03:51;;;;;;;8.70;4.77;;;;;;;;;;5146192;27;20447;-55
2020/12/17 05:06:20;;;;;;;7.22;4.45;;;;;;;;;;5133075;28;20487;-59
2020/12/17 05:08:56;;;;;;;5.22;4.15;;;;;;;;;;5126392;28;20296;-54
2020/12/17 05:11:56;;;;;;;7.45;3.85;;;;;;;;;;5122950;28;20239;-54
2020/12/17 05:14:25;;;;;;;9.40;4.40;;;;;;;;;;5112054;28;20200;-55
2020/12/17 05:17:08;;;;;;;6.40;4.28;;;;;;;;;;5112096;28;20479;-57
2020/12/17 05:19:35;;;;;;;6.43;4.73;;;;;;;;;;5110968;28;20225;-61
2020/12/17 05:22:03;;;;;;;10.32;5.45;;;;;;;;;;5102739;28;20470;-59
2020/12/17 05:24:39;;;;;;;9.00;5.88;;;;;;;;;;5090342;28;20219;-59
2020/12/17 05:27:12;;;;;;;10.13;5.45;;;;;;;;;;5089895;28;20391;-57
2020/12/17 05:29:39;;;;;;;8.18;5.20;;;;;;;;;;5104408;28;20230;-53
2020/12/17 05:32:23;;;;;;;9.00;4.93;;;;;;;;;;5110657;28;20230;-54
2020/12/17 05:34:55;;;;;;;11.85;6.63;;;;;;;;;;5112034;28;20266;-55
2020/12/17 05:37:22;;;;;;;7.43;4.73;;;;;;;;;;5111823;28;20212;-58
2020/12/17 05:39:50;;;;;;;6.10;4.77;;;;;;;;;;5111211;28;20519;-50
2020/12/17 05:45:23;;;;;;;9.63;5.67;;;;;;;;;;5091508;28;20450;-57
2020/12/17 05:48:09;;;;;;;7.37;5.33;;;;;;;;;;5091555;28;20454;-53
2020/12/17 05:50:55;;;;;;;10.10;5.07;;;;;;;;;;5091681;28;20437;-58
2020/12/17 05:59:23;;;;;;;7.40;4.83;;;;;;;;;;5090875;28;20446;-54
2020/12/17 06:01:57;;;;;;;10.93;5.00;;;;;;;;;;5092765;28;20507;-53
2020/12/17 06:04:27;;;;;;;6.50;4.80;;;;;;;;;;5102749;28;20452;-55
2020/12/17 06:07:08;;;;;;;6.50;4.77;;;;;;;;;;5111641;28;20461;-54
2020/12/17 06:09:42;;;;;;;7.73;5.23;;;;;;;;;;5110983;28;20498;-60
2020/12/17 06:14:56;;;;;;;8.67;6.20;;;;;;;;;;5101049;28;20461;-59
2020/12/17 06:17:27;;;;;;;6.72;4.70;;;;;;;;;;5110533;28;20475;-56
2020/12/17 06:19:57;;;;;;;8.63;4.40;;;;;;;;;;5151948;28;20238;-58
2020/12/17 06:22:27;;;;;;;8.90;5.10;;;;;;;;;;5131633;28;20447;-50
2020/12/17 06:27:56;;;;;;;8.77;4.80;;;;;;;;;;5143831;28;20466;-53
2020/12/17 06:30:35;;;;;;;11.27;8.40;;;;;;;;;;5140041;27;20482;-52
2020/12/17 06:33:10;;;;;;;8.70;5.00;;;;;;;;;;5148037;28;20512;-54
2020/12/17 06:35:46;;;;;;;11.20;4.43;;;;;;;;;;5153146;27;20458;-54
2020/12/17 06:38:18;;;;;;;5.83;4.23;;;;;;;;;;5139903;28;20484;-53
2020/12/17 06:40:55;;;;;;;11.20;5.47;;;;;;;;;;5142897;28;20504;-58
2020/12/17 06:43:32;;;;;;;8.23;5.50;;;;;;;;;;5152711;27;20454;-60
2020/12/17 06:49:29;;;;;;;14.40;4.67;;;;;;;;;;5157919;27;20593;-57
2020/12/17 06:52:16;;;;;;;9.50;5.80;;;;;;;;;;5158584;27;20487;-57
2020/12/17 06:54:44;;;;;;;12.23;5.43;;;;;;;;;;5154669;27;20439;-50
2020/12/17 06:57:23;;;;;;;10.03;4.20;;;;;;;;;;5155127;27;20458;-56
2020/12/17 07:00:06;;;;;;;8.00;5.40;;;;;;;;;;5154342;27;20455;-54
2020/12/17 07:03:08;;;;;;;6.23;4.90;;;;;;;;;;5154700;27;20206;-58
2020/12/17 07:05:52;;;;;;;10.50;5.75;;;;;;;;;;5154449;27;20554;-54
2020/12/17 07:11:46;;;;;;;11.80;5.63;;;;;;;;;;5153333;27;20439;-54
2020/12/17 07:14:36;;;;;;;7.60;6.13;;;;;;;;;;5153984;27;20505;-54
2020/12/17 07:17:12;;;;;;;10.13;5.93;;;;;;;;;;5154544;27;20475;-54
2020/12/17 07:20:15;;;;;;;9.83;5.83;;;;;;;;;;5155141;27;20423;-57
2020/12/17 07:22:51;;;;;;;10.60;6.10;;;;;;;;;;5076856;27;20463;-57
2020/12/17 07:28:36;;;;;;;8.70;6.20;;;;;;;;;;5148532;27;20483;-59
2020/12/17 07:31:23;;;;;;;7.40;5.53;;;;;;;;;;5152624;27;20580;-55
2020/12/17 07:36:46;;;;;;;8.90;5.87;;;;;;;;;;5154160;27;20461;-51
2020/12/17 07:39:40;;;;;;;10.77;6.90;;;;;;;;;;5151847;27;20439;-53
2020/12/17 07:42:25;;;;;;;7.13;5.25;;;;;;;;;;5149473;27;20455;-50
2020/12/17 07:45:00;;;;;;;9.70;6.13;;;;;;;;;;5136060;27;20202;-55
2020/12/17 07:47:31;;;;;;;9.57;6.77;;;;;;;;;;5133794;27;20209;-60
2020/12/17 07:50:17;;;;;;;11.43;6.77;;;;;;;;;;5143479;27;20487;-60
2020/12/17 07:52:45;;;;;;;9.43;6.43;;;;;;;;;;5154402;27;20550;-53
2020/12/17 07:55:17;;;;;;;10.68;6.32;;;;;;;;;;5153109;27;20452;-56
2020/12/17 07:57:53;;;;;;;7.30;5.47;;;;;;;;;;5153857;27;20201;-54
2020/12/17 08:00:53;;;;;;;10.27;7.10;;;;;;;;;;5154369;27;20435;-57
2020/12/17 08:03:20;;;;;;;9.17;6.67;;;;;;;;;;5152962;27;20450;-57
2020/12/17 08:05:49;;;;;;;13.80;8.43;;;;;;;;;;5152822;27;20561;-57
2020/12/17 08:08:39;;;;;;;8.17;5.97;;;;;;;;;;5153111;27;20500;-52
2020/12/17 08:11:43;;;;;;;14.53;5.60;;;;;;;;;;5153897;27;20447;-48
2020/12/17 08:14:31;;;;;;;14.50;6.50;;;;;;;;;;5152229;27;20462;-56
2020/12/17 08:17:18;;;;;;;10.27;6.10;;;;;;;;;;5148268;27;20472;-56
2020/12/17 08:20:05;;;;;;;12.43;6.50;;;;;;;;;;5144842;27;20458;-56
2020/12/17 08:22:42;;;;;;;11.37;5.87;;;;;;;;;;5150830;27;20644;-55
2020/12/17 08:28:00;;;;;;;9.87;6.33;;;;;;;;;;5496361;22;20514;-56
2020/12/17 08:30:43;;;;;;;7.47;4.93;;;;;;;;;;5154869;27;20427;-52
2020/12/17 08:33:22;;;;;;;7.63;5.33;;;;;;;;;;5154346;27;20445;-60
2020/12/17 08:36:04;;;;;;;7.97;4.87;;;;;;;;;;5145609;27;20538;-57
2020/12/17 08:41:20;;;;;;;7.37;5.17;;;;;;;;;;5133969;28;20481;-49
2020/12/17 08:49:59;;;;;;;7.67;3.67;;;;;;;;;;5130356;28;20713;-56
2020/12/17 08:52:45;;;;;;;9.57;3.80;;;;;;;;;;5132961;28;20438;-53
2020/12/17 08:55:29;;;;;;;6.17;4.03;;;;;;;;;;5140402;27;20459;-49
2020/12/17 08:58:33;;;;;;;8.23;4.03;;;;;;;;;;5151882;27;20468;-59
2020/12/17 09:01:02;;;;;;;14.83;4.00;;;;;;;;;;5126363;28;20471;-59
2020/12/17 09:03:30;;;;;;;6.90;4.13;;;;;;;;;;5132326;28;20469;-59
2020/12/17 09:09:18;;;;;;;15.03;3.50;;;;;;;;;;5147744;27;20709;-56
2020/12/17 09:11:46;;;;;;;4.33;2.80;;;;;;;;;;5153106;27;21001;-59
2020/12/17 09:14:19;;;;;;;5.13;3.00;;;;;;;;;;5154078;27;20455;-57
2020/12/17 09:17:14;;;;;;;4.07;2.53;;;;;;;;;;5152957;27;20447;-58
2020/12/17 09:19:55;;;;;;;5.00;2.67;;;;;;;;;;5152742;27;20455;-54
2020/12/17 09:22:24;;;;;;;9.10;4.50;;;;;;;;;;5151635;27;20489;-56
2020/12/17 09:24:54;;;;;;;5.33;2.90;;;;;;;;;;5149849;27;20459;-56
2020/12/17 09:27:51;;;;;;;5.97;3.17;;;;;;;;;;5152539;27;20451;-55
2020/12/17 09:30:37;;;;;;;7.37;2.70;;;;;;;;;;5129121;28;20552;-56
2020/12/17 09:36:14;;;;;;;4.37;2.20;;;;;;;;;;5126964;28;20467;-55
2020/12/17 09:38:41;;;;;;;3.20;1.70;;;;;;;;;;5117894;28;20464;-56
2020/12/17 09:44:06;;;;;;;3.53;2.63;;;;;;;;;;5143176;27;20473;-55
2020/12/17 09:46:46;;;;;;;5.00;2.93;;;;;;;;;;5151632;27;20512;-58
2020/12/17 09:49:41;;;;;;;4.20;2.77;;;;;;;;;;5151276;27;20605;-55
2020/12/17 09:52:25;;;;;;;4.07;2.27;;;;;;;;;;5152121;27;20445;-56
2020/12/17 09:55:01;;;;;;;4.90;2.00;;;;;;;;;;5152526;27;20452;-54
2020/12/17 09:57:40;;;;;;;3.90;1.70;;;;;;;;;;5150796;27;20531;-59
2020/12/17 10:00:09;;;;;;;4.10;1.97;;;;;;;;;;5153071;27;20459;-60
2020/12/17 10:02:43;;;;;;;3.40;1.60;;;;;;;;;;5153645;27;20455;-54
2020/12/17 10:05:28;;;;;;;3.80;1.70;;;;;;;;;;5153589;27;20609;-52
2020/12/17 10:11:08;;;;;;;7.30;3.40;;;;;;;;;;5151600;28;20547;-53
2020/12/17 10:13:43;;;;;;;4.73;2.67;;;;;;;;;;5150612;27;20452;-53
2020/12/17 10:16:16;;;;;;;3.37;1.73;;;;;;;;;;5148404;28;20511;-55
2020/12/17 10:18:48;;;;;;;3.40;1.40;;;;;;;;;;5151361;27;20451;-58
2020/12/17 10:25:02;;;;;;;1.93;1.13;;;;;;;;;;5135752;28;20497;-56
2020/12/17 10:27:34;;;;;;;2.40;1.53;;;;;;;;;;5143855;28;20484;-54
2020/12/17 10:30:05;;;;;;;3.77;1.33;;;;;;;;;;5150132;28;20487;-57
2020/12/17 10:32:47;;;;;;;2.83;1.33;;;;;;;;;;5150484;28;20476;-55
2020/12/17 10:35:24;;;;;;;4.17;2.20;;;;;;;;;;5150498;28;20456;-59
2020/12/17 10:37:53;;;;;;;3.37;1.83;;;;;;;;;;5149573;28;20457;-56
2020/12/17 10:40:28;;;;;;;4.40;1.60;;;;;;;;;;5150425;28;20457;-59
2020/12/17 10:43:11;;;;;;;6.60;1.80;;;;;;;;;;5150789;28;20447;-56
2020/12/17 10:45:50;;;;;;;3.17;1.70;;;;;;;;;;5116049;28;20472;-52
2020/12/17 10:48:17;;;;;;;4.50;2.07;;;;;;;;;;5133991;28;20450;-55
2020/12/17 10:53:33;;;;;;;3.87;1.33;;;;;;;;;;5135122;28;20438;-53
2020/12/17 10:56:00;;;;;;;3.73;1.53;;;;;;;;;;5150766;28;20450;-59
2020/12/17 10:58:38;;;;;;;4.27;1.57;;;;;;;;;;5151266;27;20460;-53
2020/12/17 11:01:19;;;;;;;3.73;1.60;;;;;;;;;;5150759;28;20460;-57
2020/12/17 11:04:15;;;;;;;3.13;1.40;;;;;;;;;;5129166;28;20456;-58
2020/12/17 11:06:48;;;;;;;3.50;1.20;;;;;;;;;;5092812;28;20448;-56
2020/12/17 11:09:27;;;;;;;3.97;1.80;;;;;;;;;;5149697;28;20487;-46
2020/12/17 11:11:58;;;;;;;5.30;1.50;;;;;;;;;;5149529;28;20512;-55
2020/12/17 11:14:25;;;;;;;2.70;1.13;;;;;;;;;;5149907;28;20491;-55
2020/12/17 11:17:02;;;;;;;6.13;1.93;;;;;;;;;;5135208;28;20467;-56
2020/12/17 11:19:54;;;;;;;7.20;2.40;;;;;;;;;;5133597;28;20472;-57
2020/12/17 11:22:32;;;;;;;6.00;1.70;;;;;;;;;;5134874;28;20460;-60
2020/12/17 11:25:14;;;;;;;3.37;1.30;;;;;;;;;;5148492;28;20501;-52
2020/12/17 11:27:48;;;;;;;5.20;2.73;;;;;;;;;;5148585;28;20436;-57
2020/12/17 11:30:15;;;;;;;3.80;1.97;;;;;;;;;;5149189;27;20548;-57
2020/12/17 11:39:02;;;;;;;2.70;1.50;;;;;;;;;;5127516;28;20422;-61
2020/12/17 11:41:46;;;;;;;4.10;1.97;;;;;;;;;;5134104;28;20457;-53
2020/12/17 11:44:31;;;;;;;3.77;2.17;;;;;;;;;;5115338;27;20445;-57
2020/12/17 11:47:22;;;;;;;8.70;2.20;;;;;;;;;;5144724;27;20448;-57
2020/12/17 11:50:22;;;;;;;8.63;1.67;;;;;;;;;;5137832;27;20519;-54
2020/12/17 11:52:50;;;;;;;3.60;1.47;;;;;;;;;;5153136;27;20535;-58
2020/12/17 11:55:19;;;;;;;4.10;1.53;;;;;;;;;;5154029;27;20445;-57
2020/12/17 11:57:55;;;;;;;3.50;1.53;;;;;;;;;;5154931;27;20449;-56
2020/12/17 12:00:39;;;;;;;3.23;1.97;;;;;;;;;;5154168;27;20474;-57
2020/12/17 12:03:15;;;;;;;4.70;2.20;;;;;;;;;;5139974;27;20460;-58
2020/12/17 12:05:49;;;;;;;6.73;1.93;;;;;;;;;;5116369;28;20445;-56
2020/12/17 12:08:34;;;;;;;2.73;1.30;;;;;;;;;;5130697;28;20457;-51
2020/12/17 12:11:31;;;;;;;4.13;1.73;;;;;;;;;;5130195;28;20467;-60
2020/12/17 12:14:25;;;;;;;7.50;3.40;;;;;;;;;;5130245;28;20517;-59
2020/12/17 12:16:58;;;;;;;5.00;2.40;;;;;;;;;;5131806;28;20529;-56
2020/12/17 12:19:42;;;;;;;8.33;1.60;;;;;;;;;;5132647;28;20429;-59
2020/12/17 12:22:09;;;;;;;3.90;1.30;;;;;;;;;;5134851;27;20449;-58
2020/12/17 12:24:51;;;;;;;3.23;1.50;;;;;;;;;;5150040;27;20488;-51
2020/12/17 12:27:29;;;;;;;5.17;1.73;;;;;;;;;;5143280;27;20438;-52
2020/12/17 12:30:03;;;;;;;9.63;1.70;;;;;;;;;;5151874;27;20544;-53
2020/12/17 12:32:30;;;;;;;3.03;1.57;;;;;;;;;;5152736;27;20479;-51
2020/12/17 12:34:57;;;;;;;6.50;2.20;;;;;;;;;;5151697;27;20446;-50
2020/12/17 12:37:25;;;;;;;9.50;4.33;;;;;;;;;;5152162;27;20486;-55
2020/12/17 12:39:54;;;;;;;2.50;1.60;;;;;;;;;;5153856;27;20491;-56
2020/12/17 12:42:43;;;;;;;2.73;1.23;;;;;;;;;;5172503;27;20515;-47
2020/12/17 12:45:45;;;;;;;3.90;1.70;;;;;;;;;;5171681;27;20471;-58
2020/12/17 12:48:13;;;;;;;6.27;2.00;;;;;;;;;;5174023;27;20547;-57
2020/12/17 12:50:49;;;;;;;3.03;1.50;;;;;;;;;;5173151;27;20538;-57
2020/12/17 12:53:33;;;;;;;7.77;2.27;;;;;;;;;;5168277;27;20488;-55
2020/12/17 12:58:58;;;;;;;6.07;3.10;;;;;;;;;;5167654;27;20552;-54
2020/12/17 13:01:34;;;;;;;4.40;2.07;;;;;;;;;;5168246;27;20480;-56
2020/12/17 13:04:07;;;;;;;7.53;1.87;;;;;;;;;;5172310;27;20486;-59
2020/12/17 13:06:38;;;;;;;4.17;1.73;;;;;;;;;;5172252;27;20454;-56
2020/12/17 13:09:10;;;;;;;5.50;1.80;;;;;;;;;;5171277;27;20763;-57
2020/12/17 13:11:37;;;;;;;10.37;2.40;;;;;;;;;;5170327;27;20651;-55
2020/12/17 13:14:04;;;;;;;7.23;1.23;;;;;;;;;;5170482;27;20486;-58
2020/12/17 13:16:35;;;;;;;3.70;1.50;;;;;;;;;;5171277;27;20519;-60
2020/12/17 13:19:17;;;;;;;4.03;1.30;;;;;;;;;;5167974;27;20448;-56
2020/12/17 13:22:05;;;;;;;5.03;2.50;;;;;;;;;;5164140;27;20476;-60
2020/12/17 13:24:41;;;;;;;5.10;1.97;;;;;;;;;;5165593;27;20554;-56
2020/12/17 13:30:07;;;;;;;6.73;1.60;;;;;;;;;;5165635;27;20487;-59
2020/12/17 13:32:37;;;;;;;3.40;1.63;;;;;;;;;;5171908;27;20435;-53
2020/12/17 13:35:14;;;;;;;2.73;1.20;;;;;;;;;;5172946;27;20443;-59
2020/12/17 13:37:54;;;;;;;6.80;1.60;;;;;;;;;;5168757;27;20581;-60
2020/12/17 13:40:21;;;;;;;10.30;1.60;;;;;;;;;;5172335;27;20444;-55
2020/12/17 13:42:58;;;;;;;5.77;1.77;;;;;;;;;;5173487;27;20449;-55
2020/12/17 13:45:27;;;;;;;3.53;1.97;;;;;;;;;;5173971;27;20488;-59
2020/12/17 13:48:34;;;;;;;5.13;2.30;;;;;;;;;;5172250;27;20459;-52
2020/12/17 13:51:12;;;;;;;4.47;2.00;;;;;;;;;;5167209;27;20668;-55
2020/12/17 13:53:44;;;;;;;3.37;1.50;;;;;;;;;;5169028;27;20458;-57
2020/12/17 13:59:14;;;;;;;8.93;1.90;;;;;;;;;;5167938;27;20455;-53
2020/12/17 14:04:49;;;;;;;3.33;1.50;;;;;;;;;;5167323;27;20532;-59
2020/12/17 14:07:21;;;;;;;2.80;1.27;;;;;;;;;;5169552;27;20496;-55
2020/12/17 14:09:55;;;;;;;6.30;1.80;;;;;;;;;;5171885;27;20635;-60
2020/12/17 14:12:34;;;;;;;7.87;2.23;;;;;;;;;;5170203;27;20466;-57
2020/12/17 14:15:05;;;;;;;4.23;2.53;;;;;;;;;;5168925;27;20442;-51
2020/12/17 14:17:33;;;;;;;2.97;2.10;;;;;;;;;;5169552;27;20515;-57
2020/12/17 14:20:27;;;;;;;5.30;2.00;;;;;;;;;;5164657;27;20449;-54
2020/12/17 14:23:13;;;;;;;5.20;2.20;;;;;;;;;;5161240;27;20492;-54
2020/12/17 14:25:45;;;;;;;6.07;1.50;;;;;;;;;;5146398;28;20484;-50
2020/12/17 14:28:13;;;;;;;7.70;1.47;;;;;;;;;;5119002;28;20485;-59
2020/12/17 14:30:44;;;;;;;4.63;1.50;;;;;;;;;;5148661;28;20504;-55
2020/12/17 14:33:22;;;;;;;6.90;2.97;;;;;;;;;;5127810;28;20474;-55
2020/12/17 14:36:02;;;;;;;3.50;1.63;;;;;;;;;;5144450;27;20534;-50
2020/12/17 14:38:55;;;;;;;8.87;2.63;;;;;;;;;;5098693;28;20437;-57
2020/12/17 14:41:47;;;;;;;11.53;2.90;;;;;;;;;;5144106;28;20465;-56
2020/12/17 14:44:16;;;;;;;5.93;1.97;;;;;;;;;;5148475;28;20477;-58
2020/12/17 14:47:00;;;;;;;6.80;2.33;;;;;;;;;;5148606;28;20453;-57
2020/12/17 14:49:26;;;;;;;3.93;1.50;;;;;;;;;;5148543;28;20655;-56
2020/12/17 14:52:04;;;;;;;6.20;2.23;;;;;;;;;;5149564;28;20622;-55
2020/12/17 14:54:34;;;;;;;5.30;2.30;;;;;;;;;;5127447;27;20467;-56
2020/12/17 15:00:21;;;;;;;7.00;2.10;;;;;;;;;;5107249;28;20441;-59
2020/12/17 15:02:49;;;;;;;4.37;1.73;;;;;;;;;;5117163;27;20477;-57
2020/12/17 15:05:21;;;;;;;4.03;1.43;;;;;;;;;;5148865;27;20460;-55
2020/12/17 15:08:09;;;;;;;3.30;1.40;;;;;;;;;;5143685;27;20456;-53
2020/12/17 15:10:51;;;;;;;9.20;1.93;;;;;;;;;;5131231;27;20472;-59
2020/12/17 15:13:27;;;;;;;5.93;2.70;;;;;;;;;;5148423;27;20455;-53
2020/12/17 15:16:00;;;;;;;7.10;2.07;;;;;;;;;;5153323;27;20474;-51
2020/12/17 15:18:36;;;;;;;5.27;2.30;;;;;;;;;;5154446;27;20542;-54
2020/12/17 15:21:35;;;;;;;7.47;2.70;;;;;;;;;;5159420;27;20490;-54
2020/12/17 15:24:07;;;;;;;7.33;2.50;;;;;;;;;;5132086;28;20440;-56
2020/12/17 15:26:44;;;;;;;8.53;2.93;;;;;;;;;;5134594;28;20432;-58
2020/12/17 15:29:52;;;;;;;8.00;3.33;;;;;;;;;;5143775;27;20468;-54
2020/12/17 15:32:43;;;;;;;8.40;3.80;;;;;;;;;;5155062;27;20506;-59
2020/12/17 15:35:23;;;;;;;10.40;3.60;;;;;;;;;;5152569;27;20578;-54
2020/12/17 15:37:55;;;;;;;9.53;3.60;;;;;;;;;;5160304;27;20471;-57
2020/12/17 15:40:23;;;;;;;8.90;3.37;;;;;;;;;;5172600;27;20454;-57
2020/12/17 15:42:53;;;;;;;8.67;3.73;;;;;;;;;;5165961;27;20455;-54
2020/12/17 15:45:27;;;;;;;11.10;5.50;;;;;;;;;;5131571;27;20490;-59
2020/12/17 15:47:59;;;;;;;10.83;5.23;;;;;;;;;;5131249;28;20516;-53
2020/12/17 15:50:28;;;;;;;9.20;5.50;;;;;;;;;;5124874;27;20560;-52
2020/12/17 15:52:55;;;;;;;11.77;4.93;;;;;;;;;;5132831;27;20488;-49
2020/12/17 15:55:22;;;;;;;7.83;4.23;;;;;;;;;;5157284;27;20469;-58
2020/12/17 15:57:54;;;;;;;8.20;4.47;;;;;;;;;;5156229;27;20447;-61
2020/12/17 16:00:37;;;;;;;9.60;4.03;;;;;;;;;;5150874;27;20181;-56
2020/12/17 16:03:09;;;;;;;7.03;3.25;;;;;;;;;;5150334;27;20459;-56
2020/12/17 16:05:41;;;;;;;11.63;3.03;;;;;;;;;;5150132;27;20226;-56
2020/12/17 16:08:11;;;;;;;8.93;3.50;;;;;;;;;;5151852;27;20456;-55
2020/12/17 16:10:46;;;;;;;6.38;2.95;;;;;;;;;;5149164;27;20479;-58
2020/12/17 16:13:20;;;;;;;6.77;2.23;;;;;;;;;;5151881;27;20205;-57
2020/12/17 16:16:11;;;;;;;7.60;2.70;;;;;;;;;;5153443;27;20447;-58
2020/12/17 16:18:50;;;;;;;9.25;4.68;;;;;;;;;;5131114;28;20271;-52
2020/12/17 16:21:18;;;;;;;10.98;4.05;;;;;;;;;;5147357;27;20185;-56
2020/12/17 16:23:46;;;;;;;7.17;2.87;;;;;;;;;;5140633;27;20273;-53
2020/12/17 16:26:12;;;;;;;7.43;4.35;;;;;;;;;;5153760;27;20527;-58
2020/12/17 16:28:39;;;;;;;14.47;4.17;;;;;;;;;;5153860;27;20197;-55
2020/12/17 16:34:22;;;;;;;16.00;3.03;;;;;;;;;;5155562;27;20457;-58
2020/12/17 16:37:10;;;;;;;6.50;3.23;;;;;;;;;;5152137;27;20435;-58
2020/12/17 16:45:41;;;;;;;14.55;6.78;;;;;;;;;;5144483;27;20464;-59
2020/12/17 16:48:13;;;;;;;12.10;4.05;;;;;;;;;;5172661;27;20201;-61
2020/12/17 16:50:44;;;;;;;9.57;3.42;;;;;;;;;;5173984;27;20313;-56
2020/12/17 16:56:19;;;;;;;7.40;4.20;;;;;;;;;;5163497;27;20351;-54
2020/12/17 16:58:59;;;;;;;11.93;5.78;;;;;;;;;;5150023;27;20722;-55
2020/12/17 17:01:34;;;;;;;13.52;5.28;;;;;;;;;;5143303;27;20202;-55
2020/12/17 17:04:08;;;;;;;10.70;3.77;;;;;;;;;;5146635;27;20197;-59
2020/12/17 17:06:38;;;;;;;9.27;5.30;;;;;;;;;;5139245;27;20496;-59
2020/12/17 17:09:12;;;;;;;6.80;4.00;;;;;;;;;;5153228;27;20225;-57
2020/12/17 17:11:46;;;;;;;8.33;4.77;;;;;;;;;;5133035;28;20569;-53
2020/12/17 17:14:25;;;;;;;8.57;4.67;;;;;;;;;;5152920;27;20455;-56